sensor_id;sensor_type;location;lat;lon;timestamp;pressure;altitude;pressure_sealevel;temperature;humidity
4858;BME280;58975;51.978;8.472;2023-09-07T00:00:23;100926.47;;;16.51;100.00
4858;BME280;58975;51.978;8.472;2023-09-07T00:05:20;100930.63;;;16.45;100.00
4858;BME280;58975;51.978;8.472;2023-09-07T00:10:16;100928.38;;;16.41;100.00
4858;BME280;58975;51.978;8.472;2023-09-07T00:15:14;100918.31;;;16.43;100.00
4858;BME280;58975;51.978;8.472;2023-09-07T00:20:10;100920.44;;;16.39;100.00
4858;BME280;58975;51.978;8.472;2023-09-07T00:25:07;100914.78;;;16.42;100.00
4858;BME280;58975;51.978;8.472;2023-09-07T00:30:04;100923.41;;;16.46;100.00
4858;BME280;58975;51.978;8.472;2023-09-07T00:35:01;100918.88;;;16.46;100.00
4858;BME280;58975;51.978;8.472;2023-09-07T00:39:57;100915.38;;;16.36;100.00
4858;BME280;58975;51.978;8.472;2023-09-07T00:44:54;100918.06;;;16.36;100.00
4858;BME280;58975;51.978;8.472;2023-09-07T00:49:50;100920.44;;;16.39;100.00
4858;BME280;58975;51.978;8.472;2023-09-07T00:54:47;100916.03;;;16.48;100.00
4858;BME280;58975;51.978;8.472;2023-09-07T00:59:44;100916.22;;;16.37;100.00
4858;BME280;58975;51.978;8.472;2023-09-07T01:04:40;100921.63;;;16.27;100.00
4858;BME280;58975;51.978;8.472;2023-09-07T01:09:40;100924.41;;;16.35;100.00
4858;BME280;58975;51.978;8.472;2023-09-07T01:14:37;100923.56;;;16.35;100.00
4858;BME280;58975;51.978;8.472;2023-09-07T01:19:33;100925.56;;;16.33;100.00
4858;BME280;58975;51.978;8.472;2023-09-07T01:24:30;100914.69;;;16.34;100.00
4858;BME280;58975;51.978;8.472;2023-09-07T01:29:27;100914.53;;;16.36;100.00
4858;BME280;58975;51.978;8.472;2023-09-07T01:34:25;100914.13;;;16.31;100.00
4858;BME280;58975;51.978;8.472;2023-09-07T01:39:22;100914.69;;;16.34;100.00
4858;BME280;58975;51.978;8.472;2023-09-07T01:44:19;100917.38;;;16.34;100.00
4858;BME280;58975;51.978;8.472;2023-09-07T01:49:15;100916.66;;;16.32;100.00
4858;BME280;58975;51.978;8.472;2023-09-07T01:54:12;100901.63;;;16.39;100.00
4858;BME280;58975;51.978;8.472;2023-09-07T01:59:08;100904.63;;;16.36;100.00
4858;BME280;58975;51.978;8.472;2023-09-07T02:04:05;100898.94;;;16.39;100.00
4858;BME280;58975;51.978;8.472;2023-09-07T02:09:01;100899.09;;;16.38;100.00
4858;BME280;58975;51.978;8.472;2023-09-07T02:14:00;100901.25;;;16.34;100.00
4858;BME280;58975;51.978;8.472;2023-09-07T02:19:04;100900.94;;;16.37;100.00
4858;BME280;58975;51.978;8.472;2023-09-07T02:24:01;100910.13;;;16.35;100.00
4858;BME280;58975;51.978;8.472;2023-09-07T02:28:57;100908.59;;;16.32;100.00
4858;BME280;58975;51.978;8.472;2023-09-07T02:33:54;100901.81;;;16.28;100.00
4858;BME280;58975;51.978;8.472;2023-09-07T02:38:50;100895.75;;;16.26;100.00
4858;BME280;58975;51.978;8.472;2023-09-07T02:43:47;100895.91;;;16.25;100.00
4858;BME280;58975;51.978;8.472;2023-09-07T02:48:43;100898.59;;;16.25;100.00
4858;BME280;58975;51.978;8.472;2023-09-07T02:53:40;100889.38;;;16.27;100.00
4858;BME280;58975;51.978;8.472;2023-09-07T02:58:36;100895.25;;;16.13;100.00
4858;BME280;58975;51.978;8.472;2023-09-07T03:03:34;100880.38;;;16.19;100.00
4858;BME280;58975;51.978;8.472;2023-09-07T03:08:31;100884.81;;;16.00;100.00
4858;BME280;58975;51.978;8.472;2023-09-07T03:13:28;100876.44;;;16.03;100.00
4858;BME280;58975;51.978;8.472;2023-09-07T03:18:25;100882.31;;;15.89;100.00
4858;BME280;58975;51.978;8.472;2023-09-07T03:23:22;100879.38;;;15.73;100.00
4858;BME280;58975;51.978;8.472;2023-09-07T03:28:19;100877.97;;;15.69;100.00
4858;BME280;58975;51.978;8.472;2023-09-07T03:33:16;100878.00;;;15.59;100.00
4858;BME280;58975;51.978;8.472;2023-09-07T03:38:12;100877.28;;;15.57;100.00
4858;BME280;58975;51.978;8.472;2023-09-07T03:43:10;100885.47;;;15.46;100.00
4858;BME280;58975;51.978;8.472;2023-09-07T03:48:06;100878.84;;;15.31;100.00
4858;BME280;58975;51.978;8.472;2023-09-07T03:53:03;100884.78;;;15.15;100.00
4858;BME280;58975;51.978;8.472;2023-09-07T03:58:00;100879.97;;;15.09;100.00
4858;BME280;58975;51.978;8.472;2023-09-07T04:02:56;100890.97;;;14.87;100.00
4858;BME280;58975;51.978;8.472;2023-09-07T04:07:53;100890.69;;;14.90;100.00
4858;BME280;58975;51.978;8.472;2023-09-07T04:12:50;100896.31;;;14.78;100.00
4858;BME280;58975;51.978;8.472;2023-09-07T04:17:46;100897.16;;;14.78;100.00
4858;BME280;58975;51.978;8.472;2023-09-07T04:22:43;100903.94;;;14.73;100.00
4858;BME280;58975;51.978;8.472;2023-09-07T04:27:39;100901.53;;;14.70;100.00
4858;BME280;58975;51.978;8.472;2023-09-07T04:32:36;100893.78;;;14.76;100.00
4858;BME280;58975;51.978;8.472;2023-09-07T04:37:33;100900.84;;;14.87;100.00
4858;BME280;58975;51.978;8.472;2023-09-07T04:42:29;100901.97;;;14.84;100.00
4858;BME280;58975;51.978;8.472;2023-09-07T04:47:25;100903.66;;;14.76;100.00
4858;BME280;58975;51.978;8.472;2023-09-07T04:52:22;100907.06;;;14.78;100.00
4858;BME280;58975;51.978;8.472;2023-09-07T04:57:19;100910.31;;;14.81;100.00
4858;BME280;58975;51.978;8.472;2023-09-07T05:02:15;100909.03;;;14.85;100.00
4858;BME280;58975;51.978;8.472;2023-09-07T05:07:13;100917.53;;;15.00;100.00
4858;BME280;58975;51.978;8.472;2023-09-07T05:12:10;100911.88;;;15.03;100.00
4858;BME280;58975;51.978;8.472;2023-09-07T05:17:07;100919.94;;;15.12;100.00
4858;BME280;58975;51.978;8.472;2023-09-07T05:22:03;100928.00;;;15.70;100.00
4858;BME280;58975;51.978;8.472;2023-09-07T05:27:00;100948.16;;;16.49;100.00
4858;BME280;58975;51.978;8.472;2023-09-07T05:31:56;100938.81;;;17.43;100.00
4858;BME280;58975;51.978;8.472;2023-09-07T05:36:54;100888.03;;;18.52;100.00
4858;BME280;58975;51.978;8.472;2023-09-07T05:41:51;100885.34;;;19.34;100.00
4858;BME280;58975;51.978;8.472;2023-09-07T05:46:47;100895.28;;;19.98;100.00
4858;BME280;58975;51.978;8.472;2023-09-07T05:51:44;100903.19;;;20.16;100.00
4858;BME280;58975;51.978;8.472;2023-09-07T05:56:40;100904.63;;;20.43;100.00
4858;BME280;58975;51.978;8.472;2023-09-07T06:01:38;100903.97;;;20.49;100.00
4858;BME280;58975;51.978;8.472;2023-09-07T06:06:35;100903.81;;;20.42;100.00
4858;BME280;58975;51.978;8.472;2023-09-07T06:11:31;100909.16;;;20.03;100.00
4858;BME280;58975;51.978;8.472;2023-09-07T06:16:28;100909.81;;;19.32;100.00
4858;BME280;58975;51.978;8.472;2023-09-07T06:21:25;100909.44;;;19.03;100.00
4858;BME280;58975;51.978;8.472;2023-09-07T06:26:21;100908.38;;;18.88;100.00
4858;BME280;58975;51.978;8.472;2023-09-07T06:31:18;100915.22;;;19.32;100.00
4858;BME280;58975;51.978;8.472;2023-09-07T06:36:15;100910.34;;;19.36;100.00
4858;BME280;58975;51.978;8.472;2023-09-07T06:41:11;100908.63;;;19.27;100.00
4858;BME280;58975;51.978;8.472;2023-09-07T06:46:08;100910.50;;;19.34;100.00
4858;BME280;58975;51.978;8.472;2023-09-07T06:51:06;100913.22;;;19.59;100.00
4858;BME280;58975;51.978;8.472;2023-09-07T06:56:02;100922.13;;;20.00;100.00
4858;BME280;58975;51.978;8.472;2023-09-07T07:01:00;100920.19;;;20.49;100.00
4858;BME280;58975;51.978;8.472;2023-09-07T07:05:56;100918.56;;;20.70;100.00
4858;BME280;58975;51.978;8.472;2023-09-07T07:10:53;100926.75;;;20.93;100.00
4858;BME280;58975;51.978;8.472;2023-09-07T07:15:50;100927.34;;;21.11;100.00
4858;BME280;58975;51.978;8.472;2023-09-07T07:21:05;100922.81;;;21.72;100.00
4858;BME280;58975;51.978;8.472;2023-09-07T07:26:02;100919.84;;;22.04;100.00
4858;BME280;58975;51.978;8.472;2023-09-07T07:31:07;100929.78;;;22.27;100.00
4858;BME280;58975;51.978;8.472;2023-09-07T07:36:04;100931.66;;;22.41;100.00
4858;BME280;58975;51.978;8.472;2023-09-07T07:41:01;100937.56;;;22.74;100.00
4858;BME280;58975;51.978;8.472;2023-09-07T07:45:57;100941.00;;;22.82;100.00
4858;BME280;58975;51.978;8.472;2023-09-07T07:50:54;100939.75;;;22.99;100.00
4858;BME280;58975;51.978;8.472;2023-09-07T07:55:50;100931.53;;;23.29;100.00
4858;BME280;58975;51.978;8.472;2023-09-07T08:00:47;100934.59;;;23.83;100.00
4858;BME280;58975;51.978;8.472;2023-09-07T08:05:44;100924.81;;;24.16;100.00
4858;BME280;58975;51.978;8.472;2023-09-07T08:10:41;100932.47;;;24.34;100.00
4858;BME280;58975;51.978;8.472;2023-09-07T08:15:38;100936.34;;;24.53;100.00
4858;BME280;58975;51.978;8.472;2023-09-07T08:20:34;100942.91;;;24.65;92.25
4858;BME280;58975;51.978;8.472;2023-09-07T08:25:32;100936.75;;;24.90;93.12
4858;BME280;58975;51.978;8.472;2023-09-07T08:30:29;100933.25;;;25.03;85.52
4858;BME280;58975;51.978;8.472;2023-09-07T08:35:25;100929.94;;;25.14;79.56
4858;BME280;58975;51.978;8.472;2023-09-07T08:40:26;100929.53;;;25.24;80.88
4858;BME280;58975;51.978;8.472;2023-09-07T08:45:25;100925.38;;;25.28;72.39
4858;BME280;58975;51.978;8.472;2023-09-07T08:50:23;100926.66;;;25.52;76.72
4858;BME280;58975;51.978;8.472;2023-09-07T08:55:21;100932.56;;;25.68;69.42
4858;BME280;58975;51.978;8.472;2023-09-07T09:00:17;100925.03;;;25.70;67.62
4858;BME280;58975;51.978;8.472;2023-09-07T09:05:18;100924.19;;;25.83;70.00
4858;BME280;58975;51.978;8.472;2023-09-07T09:10:17;100914.50;;;26.13;68.99
4858;BME280;58975;51.978;8.472;2023-09-07T09:15:15;100917.22;;;26.33;66.72
4858;BME280;58975;51.978;8.472;2023-09-07T09:20:24;100909.59;;;26.55;64.74
4858;BME280;58975;51.978;8.472;2023-09-07T09:25:21;100915.63;;;26.70;62.81
4858;BME280;58975;51.978;8.472;2023-09-07T09:30:18;100905.13;;;26.73;61.27
4858;BME280;58975;51.978;8.472;2023-09-07T09:35:16;100904.84;;;26.95;60.29
4858;BME280;58975;51.978;8.472;2023-09-07T09:40:14;100895.28;;;27.17;59.35
4858;BME280;58975;51.978;8.472;2023-09-07T09:45:11;100898.94;;;27.29;56.98
4858;BME280;58975;51.978;8.472;2023-09-07T09:50:10;100897.44;;;27.33;55.56
4858;BME280;58975;51.978;8.472;2023-09-07T09:55:08;100894.66;;;27.46;56.70
4858;BME280;58975;51.978;8.472;2023-09-07T10:00:05;100894.44;;;27.72;54.97
4858;BME280;58975;51.978;8.472;2023-09-07T10:05:17;100896.34;;;27.97;55.86
4858;BME280;58975;51.978;8.472;2023-09-07T10:10:15;100883.09;;;27.94;54.91
4858;BME280;58975;51.978;8.472;2023-09-07T10:15:24;100878.56;;;28.06;54.24
4858;BME280;58975;51.978;8.472;2023-09-07T10:20:22;100887.66;;;28.43;53.70
4858;BME280;58975;51.978;8.472;2023-09-07T10:25:20;100873.44;;;28.89;53.68
4858;BME280;58975;51.978;8.472;2023-09-07T10:30:17;100876.28;;;28.94;55.03
4858;BME280;58975;51.978;8.472;2023-09-07T10:35:19;100872.84;;;28.69;62.18
4858;BME280;58975;51.978;8.472;2023-09-07T10:40:21;100876.28;;;28.46;60.34
4858;BME280;58975;51.978;8.472;2023-09-07T10:45:18;100862.34;;;28.29;62.36
4858;BME280;58975;51.978;8.472;2023-09-07T10:50:15;100859.13;;;28.50;58.61
4858;BME280;58975;51.978;8.472;2023-09-07T10:55:12;100859.97;;;28.51;58.79
4858;BME280;58975;51.978;8.472;2023-09-07T11:00:10;100858.13;;;28.63;55.97
4858;BME280;58975;51.978;8.472;2023-09-07T11:05:07;100853.63;;;28.50;54.41
4858;BME280;58975;51.978;8.472;2023-09-07T11:10:07;100843.22;;;28.77;54.72
4858;BME280;58975;51.978;8.472;2023-09-07T11:15:04;100836.81;;;28.83;55.28
4858;BME280;58975;51.978;8.472;2023-09-07T11:20:03;100825.41;;;28.98;52.74
4858;BME280;58975;51.978;8.472;2023-09-07T11:25:04;100835.97;;;28.83;57.15
4858;BME280;58975;51.978;8.472;2023-09-07T11:30:01;100826.75;;;29.07;53.52
4858;BME280;58975;51.978;8.472;2023-09-07T11:34:59;100823.53;;;29.10;51.46
4858;BME280;58975;51.978;8.472;2023-09-07T11:39:56;100813.72;;;28.91;50.67
4858;BME280;58975;51.978;8.472;2023-09-07T11:44:52;100811.25;;;29.01;51.46
4858;BME280;58975;51.978;8.472;2023-09-07T11:49:49;100808.06;;;28.86;48.97
4858;BME280;58975;51.978;8.472;2023-09-07T11:54:47;100814.81;;;29.31;52.26
4858;BME280;58975;51.978;8.472;2023-09-07T11:59:43;100807.53;;;29.48;48.81
4858;BME280;58975;51.978;8.472;2023-09-07T12:04:53;100807.44;;;29.43;47.68
4858;BME280;58975;51.978;8.472;2023-09-07T12:09:50;100800.63;;;29.57;47.09
4858;BME280;58975;51.978;8.472;2023-09-07T12:14:47;100808.38;;;29.49;46.91
4858;BME280;58975;51.978;8.472;2023-09-07T12:19:43;100794.56;;;29.55;46.82
4858;BME280;58975;51.978;8.472;2023-09-07T12:24:42;100790.72;;;29.56;46.24
4858;BME280;58975;51.978;8.472;2023-09-07T12:29:38;100788.56;;;29.58;45.67
4858;BME280;58975;51.978;8.472;2023-09-07T12:34:35;100777.09;;;29.38;46.62
4858;BME280;58975;51.978;8.472;2023-09-07T12:39:32;100777.59;;;29.58;45.90
4858;BME280;58975;51.978;8.472;2023-09-07T12:44:29;100782.03;;;29.59;46.98
4858;BME280;58975;51.978;8.472;2023-09-07T12:49:25;100779.50;;;29.58;46.51
4858;BME280;58975;51.978;8.472;2023-09-07T12:54:21;100775.22;;;29.50;46.25
4858;BME280;58975;51.978;8.472;2023-09-07T12:59:18;100767.91;;;29.44;46.50
4858;BME280;58975;51.978;8.472;2023-09-07T13:04:15;100769.38;;;29.58;46.14
4858;BME280;58975;51.978;8.472;2023-09-07T13:09:11;100769.09;;;29.48;45.38
4858;BME280;58975;51.978;8.472;2023-09-07T13:14:08;100755.78;;;29.64;46.46
4858;BME280;58975;51.978;8.472;2023-09-07T13:19:07;100755.00;;;29.80;46.92
4858;BME280;58975;51.978;8.472;2023-09-07T13:24:04;100755.16;;;29.73;46.77
4858;BME280;58975;51.978;8.472;2023-09-07T13:29:00;100754.81;;;29.58;48.94
4858;BME280;58975;51.978;8.472;2023-09-07T13:33:57;100762.06;;;29.64;49.30
4858;BME280;58975;51.978;8.472;2023-09-07T13:38:53;100753.94;;;29.81;49.63
4858;BME280;58975;51.978;8.472;2023-09-07T13:43:53;100746.69;;;29.75;49.44
4858;BME280;58975;51.978;8.472;2023-09-07T13:48:50;100732.25;;;29.44;48.38
4858;BME280;58975;51.978;8.472;2023-09-07T13:53:46;100735.81;;;29.45;49.90
4858;BME280;58975;51.978;8.472;2023-09-07T13:58:43;100733.69;;;29.58;50.12
4858;BME280;58975;51.978;8.472;2023-09-07T14:03:40;100727.72;;;29.50;50.61
4858;BME280;58975;51.978;8.472;2023-09-07T14:08:36;100729.25;;;29.57;50.37
4858;BME280;58975;51.978;8.472;2023-09-07T14:13:33;100729.97;;;29.65;51.14
4858;BME280;58975;51.978;8.472;2023-09-07T14:18:31;100720.66;;;29.89;49.86
4858;BME280;58975;51.978;8.472;2023-09-07T14:23:28;100720.91;;;29.76;49.19
4858;BME280;58975;51.978;8.472;2023-09-07T14:28:24;100719.72;;;29.48;50.12
4858;BME280;58975;51.978;8.472;2023-09-07T14:33:20;100719.00;;;29.41;49.40
4858;BME280;58975;51.978;8.472;2023-09-07T14:38:17;100723.44;;;29.42;48.88
4858;BME280;58975;51.978;8.472;2023-09-07T14:43:13;100715.03;;;29.26;48.32
4858;BME280;58975;51.978;8.472;2023-09-07T14:48:10;100719.63;;;29.32;48.67
4858;BME280;58975;51.978;8.472;2023-09-07T14:53:06;100714.31;;;29.19;46.02
4858;BME280;58975;51.978;8.472;2023-09-07T14:58:03;100721.28;;;29.56;48.90
4858;BME280;58975;51.978;8.472;2023-09-07T15:03:05;100714.22;;;29.48;46.95
4858;BME280;58975;51.978;8.472;2023-09-07T15:08:02;100710.44;;;29.38;47.30
4858;BME280;58975;51.978;8.472;2023-09-07T15:13:01;100698.97;;;29.29;46.48
4858;BME280;58975;51.978;8.472;2023-09-07T15:18:00;100702.66;;;29.23;46.17
4858;BME280;58975;51.978;8.472;2023-09-07T15:22:57;100694.78;;;29.15;47.92
4858;BME280;58975;51.978;8.472;2023-09-07T15:27:56;100691.09;;;29.33;46.44
4858;BME280;58975;51.978;8.472;2023-09-07T15:32:52;100687.53;;;29.32;46.24
4858;BME280;58975;51.978;8.472;2023-09-07T15:37:49;100693.75;;;29.39;46.63
4858;BME280;58975;51.978;8.472;2023-09-07T15:42:46;100685.84;;;29.43;46.87
4858;BME280;58975;51.978;8.472;2023-09-07T15:47:42;100674.53;;;29.28;46.51
4858;BME280;58975;51.978;8.472;2023-09-07T15:52:47;100689.31;;;29.38;47.84
4858;BME280;58975;51.978;8.472;2023-09-07T15:57:44;100687.06;;;29.35;47.60
4858;BME280;58975;51.978;8.472;2023-09-07T16:02:44;100682.50;;;29.29;48.05
4858;BME280;58975;51.978;8.472;2023-09-07T16:07:41;100680.56;;;29.18;49.28
4858;BME280;58975;51.978;8.472;2023-09-07T16:12:38;100671.88;;;29.21;49.32
4858;BME280;58975;51.978;8.472;2023-09-07T16:17:34;100674.59;;;29.21;48.88
4858;BME280;58975;51.978;8.472;2023-09-07T16:22:31;100673.06;;;29.25;48.52
4858;BME280;58975;51.978;8.472;2023-09-07T16:27:28;100661.66;;;29.40;49.45
4858;BME280;58975;51.978;8.472;2023-09-07T16:32:24;100663.25;;;29.87;48.01
4858;BME280;58975;51.978;8.472;2023-09-07T16:37:21;100669.91;;;31.10;45.49
4858;BME280;58975;51.978;8.472;2023-09-07T16:42:22;100664.66;;;35.54;37.87
4858;BME280;58975;51.978;8.472;2023-09-07T16:47:19;100658.03;;;39.64;31.30
4858;BME280;58975;51.978;8.472;2023-09-07T16:52:16;100659.41;;;41.81;28.98
4858;BME280;58975;51.978;8.472;2023-09-07T16:57:13;100660.69;;;42.49;27.74
4858;BME280;58975;51.978;8.472;2023-09-07T17:02:09;100663.13;;;42.93;27.20
4858;BME280;58975;51.978;8.472;2023-09-07T17:07:06;100665.91;;;41.98;28.17
4858;BME280;58975;51.978;8.472;2023-09-07T17:12:04;100665.72;;;41.16;29.06
4858;BME280;58975;51.978;8.472;2023-09-07T17:17:04;100657.44;;;39.67;30.92
4858;BME280;58975;51.978;8.472;2023-09-07T17:22:00;100653.72;;;38.85;31.59
4858;BME280;58975;51.978;8.472;2023-09-07T17:26:57;100655.59;;;35.08;37.01
4858;BME280;58975;51.978;8.472;2023-09-07T17:31:53;100664.03;;;31.39;42.77
4858;BME280;58975;51.978;8.472;2023-09-07T17:36:50;100670.88;;;28.39;51.17
4858;BME280;58975;51.978;8.472;2023-09-07T17:41:47;100688.84;;;26.45;61.15
4858;BME280;58975;51.978;8.472;2023-09-07T17:46:43;100682.72;;;25.48;74.30
4858;BME280;58975;51.978;8.472;2023-09-07T17:51:41;100689.28;;;25.01;77.68
4858;BME280;58975;51.978;8.472;2023-09-07T17:56:38;100680.00;;;24.62;84.46
4858;BME280;58975;51.978;8.472;2023-09-07T18:01:34;100688.81;;;24.03;84.55
4858;BME280;58975;51.978;8.472;2023-09-07T18:06:31;100693.25;;;23.64;87.39
4858;BME280;58975;51.978;8.472;2023-09-07T18:11:30;100695.34;;;23.34;89.74
4858;BME280;58975;51.978;8.472;2023-09-07T18:16:26;100696.00;;;23.08;89.21
4858;BME280;58975;51.978;8.472;2023-09-07T18:21:23;100704.38;;;22.85;90.29
4858;BME280;58975;51.978;8.472;2023-09-07T18:26:20;100696.50;;;22.54;92.59
4858;BME280;58975;51.978;8.472;2023-09-07T18:31:17;100707.03;;;22.43;90.67
4858;BME280;58975;51.978;8.472;2023-09-07T18:36:13;100706.50;;;22.11;96.41
4858;BME280;58975;51.978;8.472;2023-09-07T18:41:10;100706.53;;;21.97;91.54
4858;BME280;58975;51.978;8.472;2023-09-07T18:46:06;100716.16;;;21.70;100.00
4858;BME280;58975;51.978;8.472;2023-09-07T18:51:05;100702.03;;;21.45;100.00
4858;BME280;58975;51.978;8.472;2023-09-07T18:56:07;100694.47;;;21.41;100.00
4858;BME280;58975;51.978;8.472;2023-09-07T19:01:15;100700.81;;;21.77;98.56
4858;BME280;58975;51.978;8.472;2023-09-07T19:06:12;100706.31;;;21.84;100.00
4858;BME280;58975;51.978;8.472;2023-09-07T19:11:09;100708.00;;;21.85;97.31
4858;BME280;58975;51.978;8.472;2023-09-07T19:16:10;100697.94;;;21.79;100.00
4858;BME280;58975;51.978;8.472;2023-09-07T19:21:08;100695.59;;;21.61;100.00
4858;BME280;58975;51.978;8.472;2023-09-07T19:26:27;100696.91;;;21.50;100.00
4858;BME280;58975;51.978;8.472;2023-09-07T19:31:24;100692.13;;;21.38;100.00
4858;BME280;58975;51.978;8.472;2023-09-07T19:36:22;100704.56;;;21.09;100.00
4858;BME280;58975;51.978;8.472;2023-09-07T19:41:18;100696.44;;;21.09;100.00
4858;BME280;58975;51.978;8.472;2023-09-07T19:46:15;100701.88;;;21.09;100.00
4858;BME280;58975;51.978;8.472;2023-09-07T19:51:14;100702.06;;;21.08;100.00
4858;BME280;58975;51.978;8.472;2023-09-07T19:56:18;100702.63;;;21.03;100.00
4858;BME280;58975;51.978;8.472;2023-09-07T20:01:16;100703.66;;;20.80;100.00
4858;BME280;58975;51.978;8.472;2023-09-07T20:06:14;100702.03;;;20.70;100.00
4858;BME280;58975;51.978;8.472;2023-09-07T20:11:12;100704.16;;;20.60;100.00
4858;BME280;58975;51.978;8.472;2023-09-07T20:16:09;100700.25;;;20.63;100.00
4858;BME280;58975;51.978;8.472;2023-09-07T20:21:11;100702.31;;;20.61;100.00
4858;BME280;58975;51.978;8.472;2023-09-07T20:26:07;100701.84;;;20.57;100.00
4858;BME280;58975;51.978;8.472;2023-09-07T20:31:04;100702.06;;;20.48;100.00
4858;BME280;58975;51.978;8.472;2023-09-07T20:36:02;100713.72;;;20.17;100.00
4858;BME280;58975;51.978;8.472;2023-09-07T20:40:59;100710.50;;;19.91;100.00
4858;BME280;58975;51.978;8.472;2023-09-07T20:45:57;100713.28;;;19.67;100.00
4858;BME280;58975;51.978;8.472;2023-09-07T20:50:54;100714.84;;;19.53;100.00
4858;BME280;58975;51.978;8.472;2023-09-07T20:55:50;100718.03;;;19.57;100.00
4858;BME280;58975;51.978;8.472;2023-09-07T21:00:47;100715.00;;;19.60;100.00
4858;BME280;58975;51.978;8.472;2023-09-07T21:05:44;100709.94;;;19.49;100.00
4858;BME280;58975;51.978;8.472;2023-09-07T21:10:40;100708.63;;;19.45;100.00
4858;BME280;58975;51.978;8.472;2023-09-07T21:15:37;100711.63;;;19.42;100.00
4858;BME280;58975;51.978;8.472;2023-09-07T21:20:33;100713.53;;;19.25;100.00
4858;BME280;58975;51.978;8.472;2023-09-07T21:25:30;100720.47;;;19.27;100.00
4858;BME280;58975;51.978;8.472;2023-09-07T21:30:28;100722.81;;;19.14;100.00
4858;BME280;58975;51.978;8.472;2023-09-07T21:35:25;100712.88;;;18.99;100.00
4858;BME280;58975;51.978;8.472;2023-09-07T21:40:22;100719.81;;;18.85;100.00
4858;BME280;58975;51.978;8.472;2023-09-07T21:45:18;100700.25;;;18.75;100.00
4858;BME280;58975;51.978;8.472;2023-09-07T21:50:15;100715.78;;;18.73;100.00
4858;BME280;58975;51.978;8.472;2023-09-07T21:55:11;100717.47;;;18.66;100.00
4858;BME280;58975;51.978;8.472;2023-09-07T22:00:08;100707.69;;;18.65;100.00
4858;BME280;58975;51.978;8.472;2023-09-07T22:05:09;100707.50;;;18.58;100.00
4858;BME280;58975;51.978;8.472;2023-09-07T22:10:06;100702.38;;;18.39;100.00
4858;BME280;58975;51.978;8.472;2023-09-07T22:15:03;100702.34;;;18.15;100.00
4858;BME280;58975;51.978;8.472;2023-09-07T22:20:00;100696.41;;;17.95;100.00
4858;BME280;58975;51.978;8.472;2023-09-07T22:24:57;100688.09;;;17.88;100.00
4858;BME280;58975;51.978;8.472;2023-09-07T22:29:53;100686.16;;;17.65;100.00
4858;BME280;58975;51.978;8.472;2023-09-07T22:34:50;100687.09;;;17.47;100.00
4858;BME280;58975;51.978;8.472;2023-09-07T22:39:46;100685.28;;;17.30;100.00
4858;BME280;58975;51.978;8.472;2023-09-07T22:44:43;100693.00;;;17.25;100.00
4858;BME280;58975;51.978;8.472;2023-09-07T22:49:40;100686.09;;;17.23;100.00
4858;BME280;58975;51.978;8.472;2023-09-07T22:54:36;100689.63;;;17.23;100.00
4858;BME280;58975;51.978;8.472;2023-09-07T22:59:33;100689.25;;;17.18;100.00
4858;BME280;58975;51.978;8.472;2023-09-07T23:04:29;100689.44;;;17.17;100.00
4858;BME280;58975;51.978;8.472;2023-09-07T23:09:26;100691.44;;;17.15;100.00
4858;BME280;58975;51.978;8.472;2023-09-07T23:14:26;100692.94;;;17.17;100.00
4858;BME280;58975;51.978;8.472;2023-09-07T23:19:23;100688.06;;;17.13;100.00
4858;BME280;58975;51.978;8.472;2023-09-07T23:24:19;100688.91;;;17.13;100.00
4858;BME280;58975;51.978;8.472;2023-09-07T23:29:19;100703.97;;;17.06;100.00
4858;BME280;58975;51.978;8.472;2023-09-07T23:34:15;100698.25;;;17.01;100.00
4858;BME280;58975;51.978;8.472;2023-09-07T23:39:12;100699.63;;;16.87;100.00
4858;BME280;58975;51.978;8.472;2023-09-07T23:44:09;100696.94;;;16.87;100.00
4858;BME280;58975;51.978;8.472;2023-09-07T23:49:05;100690.66;;;16.79;100.00
4858;BME280;58975;51.978;8.472;2023-09-07T23:54:02;100689.34;;;16.83;100.00
4858;BME280;58975;51.978;8.472;2023-09-07T23:58:59;100685.00;;;16.82;100.00
